sensor_id;sensor_type;location;lat;lon;timestamp;P1;durP1;ratioP1;P2;durP2;ratioP2
12591;SDS011;6361;52.120;5.108;2023-04-16T00:02:17;8.60;;;2.70;;
12591;SDS011;6361;52.120;5.108;2023-04-16T00:04:42;7.45;;;2.03;;
12591;SDS011;6361;52.120;5.108;2023-04-16T00:07:08;5.43;;;2.15;;
12591;SDS011;6361;52.120;5.108;2023-04-16T00:09:33;5.88;;;2.15;;
12591;SDS011;6361;52.120;5.108;2023-04-16T00:11:58;7.22;;;2.10;;
12591;SDS011;6361;52.120;5.108;2023-04-16T00:14:24;6.70;;;2.10;;
12591;SDS011;6361;52.120;5.108;2023-04-16T00:16:49;8.68;;;1.90;;
12591;SDS011;6361;52.120;5.108;2023-04-16T00:19:15;6.30;;;1.98;;
12591;SDS011;6361;52.120;5.108;2023-04-16T00:21:40;5.35;;;2.08;;
12591;SDS011;6361;52.120;5.108;2023-04-16T00:24:05;5.68;;;1.90;;
12591;SDS011;6361;52.120;5.108;2023-04-16T00:26:31;6.93;;;2.00;;
12591;SDS011;6361;52.120;5.108;2023-04-16T00:28:56;5.63;;;1.80;;
12591;SDS011;6361;52.120;5.108;2023-04-16T00:31:25;7.22;;;1.90;;
12591;SDS011;6361;52.120;5.108;2023-04-16T00:33:54;4.75;;;1.83;;
12591;SDS011;6361;52.120;5.108;2023-04-16T00:36:20;5.45;;;1.98;;
12591;SDS011;6361;52.120;5.108;2023-04-16T00:38:46;5.13;;;2.00;;
12591;SDS011;6361;52.120;5.108;2023-04-16T00:41:12;4.70;;;1.92;;
12591;SDS011;6361;52.120;5.108;2023-04-16T00:43:37;5.68;;;2.00;;
12591;SDS011;6361;52.120;5.108;2023-04-16T00:46:03;6.47;;;2.00;;
12591;SDS011;6361;52.120;5.108;2023-04-16T00:48:30;4.68;;;1.90;;
12591;SDS011;6361;52.120;5.108;2023-04-16T00:50:57;5.60;;;2.10;;
12591;SDS011;6361;52.120;5.108;2023-04-16T00:53:24;6.57;;;2.03;;
12591;SDS011;6361;52.120;5.108;2023-04-16T00:55:49;7.25;;;2.63;;
12591;SDS011;6361;52.120;5.108;2023-04-16T00:58:15;4.15;;;2.30;;
12591;SDS011;6361;52.120;5.108;2023-04-16T01:00:40;5.22;;;2.40;;
12591;SDS011;6361;52.120;5.108;2023-04-16T01:03:06;5.85;;;2.40;;
12591;SDS011;6361;52.120;5.108;2023-04-16T01:05:31;6.65;;;2.42;;
12591;SDS011;6361;52.120;5.108;2023-04-16T01:07:57;8.02;;;3.13;;
12591;SDS011;6361;52.120;5.108;2023-04-16T01:10:24;5.85;;;2.90;;
12591;SDS011;6361;52.120;5.108;2023-04-16T01:12:50;5.00;;;2.95;;
12591;SDS011;6361;52.120;5.108;2023-04-16T01:15:15;10.07;;;3.45;;
12591;SDS011;6361;52.120;5.108;2023-04-16T01:17:40;8.43;;;2.67;;
12591;SDS011;6361;52.120;5.108;2023-04-16T01:20:06;9.55;;;3.10;;
12591;SDS011;6361;52.120;5.108;2023-04-16T01:22:31;7.63;;;3.00;;
12591;SDS011;6361;52.120;5.108;2023-04-16T01:24:59;7.43;;;2.90;;
12591;SDS011;6361;52.120;5.108;2023-04-16T01:27:24;8.52;;;3.20;;
12591;SDS011;6361;52.120;5.108;2023-04-16T01:29:51;9.35;;;3.78;;
12591;SDS011;6361;52.120;5.108;2023-04-16T01:32:16;8.98;;;3.75;;
12591;SDS011;6361;52.120;5.108;2023-04-16T01:34:41;7.95;;;4.05;;
12591;SDS011;6361;52.120;5.108;2023-04-16T01:37:07;8.00;;;4.18;;
12591;SDS011;6361;52.120;5.108;2023-04-16T01:39:32;9.00;;;4.03;;
12591;SDS011;6361;52.120;5.108;2023-04-16T01:41:58;11.52;;;4.25;;
12591;SDS011;6361;52.120;5.108;2023-04-16T01:44:23;8.15;;;4.28;;
12591;SDS011;6361;52.120;5.108;2023-04-16T01:46:49;10.40;;;4.25;;
12591;SDS011;6361;52.120;5.108;2023-04-16T01:49:14;8.73;;;3.97;;
12591;SDS011;6361;52.120;5.108;2023-04-16T01:51:40;9.40;;;4.13;;
12591;SDS011;6361;52.120;5.108;2023-04-16T01:54:06;8.75;;;3.70;;
12591;SDS011;6361;52.120;5.108;2023-04-16T01:56:31;9.73;;;4.07;;
12591;SDS011;6361;52.120;5.108;2023-04-16T01:58:57;10.20;;;3.33;;
12591;SDS011;6361;52.120;5.108;2023-04-16T02:01:22;7.30;;;3.75;;
12591;SDS011;6361;52.120;5.108;2023-04-16T02:03:48;7.95;;;3.67;;
12591;SDS011;6361;52.120;5.108;2023-04-16T02:06:13;9.10;;;3.55;;
12591;SDS011;6361;52.120;5.108;2023-04-16T02:08:39;6.63;;;3.80;;
12591;SDS011;6361;52.120;5.108;2023-04-16T02:11:05;9.88;;;3.53;;
12591;SDS011;6361;52.120;5.108;2023-04-16T02:13:30;12.15;;;3.70;;
12591;SDS011;6361;52.120;5.108;2023-04-16T02:15:56;9.13;;;3.50;;
12591;SDS011;6361;52.120;5.108;2023-04-16T02:18:21;9.80;;;3.55;;
12591;SDS011;6361;52.120;5.108;2023-04-16T02:20:47;8.43;;;3.58;;
12591;SDS011;6361;52.120;5.108;2023-04-16T02:23:13;9.15;;;3.85;;
12591;SDS011;6361;52.120;5.108;2023-04-16T02:25:43;10.88;;;4.00;;
12591;SDS011;6361;52.120;5.108;2023-04-16T02:28:10;8.07;;;3.53;;
12591;SDS011;6361;52.120;5.108;2023-04-16T02:30:38;8.73;;;4.00;;
12591;SDS011;6361;52.120;5.108;2023-04-16T02:33:04;9.68;;;3.97;;
12591;SDS011;6361;52.120;5.108;2023-04-16T02:35:31;7.60;;;3.53;;
12591;SDS011;6361;52.120;5.108;2023-04-16T02:37:57;8.50;;;4.05;;
12591;SDS011;6361;52.120;5.108;2023-04-16T02:40:22;8.07;;;3.63;;
12591;SDS011;6361;52.120;5.108;2023-04-16T02:42:48;10.77;;;4.30;;
12591;SDS011;6361;52.120;5.108;2023-04-16T02:45:13;8.05;;;3.90;;
12591;SDS011;6361;52.120;5.108;2023-04-16T02:47:39;10.30;;;4.50;;
12591;SDS011;6361;52.120;5.108;2023-04-16T02:50:04;11.32;;;4.32;;
12591;SDS011;6361;52.120;5.108;2023-04-16T02:52:30;12.00;;;4.65;;
12591;SDS011;6361;52.120;5.108;2023-04-16T02:54:56;12.45;;;4.38;;
12591;SDS011;6361;52.120;5.108;2023-04-16T02:57:22;13.13;;;4.07;;
12591;SDS011;6361;52.120;5.108;2023-04-16T02:59:47;9.90;;;4.05;;
12591;SDS011;6361;52.120;5.108;2023-04-16T03:02:13;11.43;;;4.50;;
12591;SDS011;6361;52.120;5.108;2023-04-16T03:04:38;11.63;;;3.72;;
12591;SDS011;6361;52.120;5.108;2023-04-16T03:07:03;12.13;;;4.38;;
12591;SDS011;6361;52.120;5.108;2023-04-16T03:09:29;11.40;;;4.45;;
12591;SDS011;6361;52.120;5.108;2023-04-16T03:11:55;11.30;;;4.68;;
12591;SDS011;6361;52.120;5.108;2023-04-16T03:14:20;13.30;;;4.47;;
12591;SDS011;6361;52.120;5.108;2023-04-16T03:16:46;11.50;;;4.55;;
12591;SDS011;6361;52.120;5.108;2023-04-16T03:19:11;10.50;;;4.93;;
12591;SDS011;6361;52.120;5.108;2023-04-16T03:21:36;8.70;;;4.85;;
12591;SDS011;6361;52.120;5.108;2023-04-16T03:24:02;14.80;;;5.38;;
12591;SDS011;6361;52.120;5.108;2023-04-16T03:26:27;12.15;;;5.15;;
12591;SDS011;6361;52.120;5.108;2023-04-16T03:28:52;10.63;;;5.30;;
12591;SDS011;6361;52.120;5.108;2023-04-16T03:31:18;15.10;;;5.35;;
12591;SDS011;6361;52.120;5.108;2023-04-16T03:33:43;15.05;;;6.10;;
12591;SDS011;6361;52.120;5.108;2023-04-16T03:36:08;15.90;;;6.82;;
12591;SDS011;6361;52.120;5.108;2023-04-16T03:38:34;20.63;;;6.97;;
12591;SDS011;6361;52.120;5.108;2023-04-16T03:40:59;16.70;;;6.85;;
12591;SDS011;6361;52.120;5.108;2023-04-16T03:43:25;21.98;;;7.38;;
12591;SDS011;6361;52.120;5.108;2023-04-16T03:45:50;18.90;;;7.13;;
12591;SDS011;6361;52.120;5.108;2023-04-16T03:48:15;17.08;;;7.25;;
12591;SDS011;6361;52.120;5.108;2023-04-16T03:50:45;18.35;;;7.30;;
12591;SDS011;6361;52.120;5.108;2023-04-16T03:53:11;19.02;;;7.22;;
12591;SDS011;6361;52.120;5.108;2023-04-16T03:55:36;16.10;;;7.70;;
12591;SDS011;6361;52.120;5.108;2023-04-16T03:58:02;15.85;;;8.23;;
12591;SDS011;6361;52.120;5.108;2023-04-16T04:00:28;18.77;;;8.00;;
12591;SDS011;6361;52.120;5.108;2023-04-16T04:02:54;17.08;;;7.60;;
12591;SDS011;6361;52.120;5.108;2023-04-16T04:05:20;15.68;;;7.93;;
12591;SDS011;6361;52.120;5.108;2023-04-16T04:07:45;18.23;;;8.38;;
12591;SDS011;6361;52.120;5.108;2023-04-16T04:10:10;19.75;;;8.02;;
12591;SDS011;6361;52.120;5.108;2023-04-16T04:12:36;13.75;;;7.85;;
12591;SDS011;6361;52.120;5.108;2023-04-16T04:15:01;17.70;;;8.25;;
12591;SDS011;6361;52.120;5.108;2023-04-16T04:17:27;22.52;;;8.85;;
12591;SDS011;6361;52.120;5.108;2023-04-16T04:19:52;20.02;;;8.75;;
12591;SDS011;6361;52.120;5.108;2023-04-16T04:22:18;27.17;;;9.38;;
12591;SDS011;6361;52.120;5.108;2023-04-16T04:24:43;18.88;;;8.35;;
12591;SDS011;6361;52.120;5.108;2023-04-16T04:27:09;21.85;;;9.07;;
12591;SDS011;6361;52.120;5.108;2023-04-16T04:29:34;18.33;;;8.65;;
12591;SDS011;6361;52.120;5.108;2023-04-16T04:31:59;21.38;;;8.48;;
12591;SDS011;6361;52.120;5.108;2023-04-16T04:34:25;21.25;;;8.90;;
12591;SDS011;6361;52.120;5.108;2023-04-16T04:36:50;19.77;;;9.27;;
12591;SDS011;6361;52.120;5.108;2023-04-16T04:39:16;18.73;;;9.13;;
12591;SDS011;6361;52.120;5.108;2023-04-16T04:41:41;21.98;;;9.68;;
12591;SDS011;6361;52.120;5.108;2023-04-16T04:44:07;20.20;;;8.98;;
12591;SDS011;6361;52.120;5.108;2023-04-16T04:46:32;21.52;;;10.05;;
12591;SDS011;6361;52.120;5.108;2023-04-16T04:48:57;22.77;;;10.82;;
12591;SDS011;6361;52.120;5.108;2023-04-16T04:51:23;28.58;;;10.77;;
12591;SDS011;6361;52.120;5.108;2023-04-16T04:53:48;23.65;;;11.50;;
12591;SDS011;6361;52.120;5.108;2023-04-16T04:56:13;27.17;;;12.13;;
12591;SDS011;6361;52.120;5.108;2023-04-16T04:58:39;24.25;;;10.52;;
12591;SDS011;6361;52.120;5.108;2023-04-16T05:01:05;28.73;;;13.52;;
12591;SDS011;6361;52.120;5.108;2023-04-16T05:03:30;36.85;;;13.40;;
12591;SDS011;6361;52.120;5.108;2023-04-16T05:05:56;31.20;;;12.75;;
12591;SDS011;6361;52.120;5.108;2023-04-16T05:08:21;35.17;;;14.32;;
12591;SDS011;6361;52.120;5.108;2023-04-16T05:10:46;34.92;;;13.77;;
12591;SDS011;6361;52.120;5.108;2023-04-16T05:13:12;30.17;;;13.45;;
12591;SDS011;6361;52.120;5.108;2023-04-16T05:15:37;38.63;;;15.77;;
12591;SDS011;6361;52.120;5.108;2023-04-16T05:18:02;36.78;;;14.52;;
12591;SDS011;6361;52.120;5.108;2023-04-16T05:20:28;38.03;;;14.60;;
12591;SDS011;6361;52.120;5.108;2023-04-16T05:22:53;39.60;;;14.55;;
12591;SDS011;6361;52.120;5.108;2023-04-16T05:25:19;30.75;;;12.57;;
12591;SDS011;6361;52.120;5.108;2023-04-16T05:27:45;32.83;;;13.05;;
12591;SDS011;6361;52.120;5.108;2023-04-16T05:30:10;29.33;;;12.23;;
12591;SDS011;6361;52.120;5.108;2023-04-16T05:32:37;29.90;;;12.18;;
12591;SDS011;6361;52.120;5.108;2023-04-16T05:35:03;33.00;;;12.75;;
12591;SDS011;6361;52.120;5.108;2023-04-16T05:37:28;27.15;;;11.95;;
12591;SDS011;6361;52.120;5.108;2023-04-16T05:39:54;27.30;;;11.35;;
12591;SDS011;6361;52.120;5.108;2023-04-16T05:42:19;29.17;;;12.27;;
12591;SDS011;6361;52.120;5.108;2023-04-16T05:44:45;28.98;;;11.93;;
12591;SDS011;6361;52.120;5.108;2023-04-16T05:47:10;24.17;;;11.88;;
12591;SDS011;6361;52.120;5.108;2023-04-16T05:49:35;27.02;;;12.38;;
12591;SDS011;6361;52.120;5.108;2023-04-16T05:52:01;26.42;;;11.98;;
12591;SDS011;6361;52.120;5.108;2023-04-16T05:54:27;33.10;;;13.25;;
12591;SDS011;6361;52.120;5.108;2023-04-16T05:56:53;25.15;;;13.18;;
12591;SDS011;6361;52.120;5.108;2023-04-16T05:59:18;25.05;;;12.20;;
12591;SDS011;6361;52.120;5.108;2023-04-16T06:01:43;30.42;;;12.77;;
12591;SDS011;6361;52.120;5.108;2023-04-16T06:04:09;30.73;;;13.18;;
12591;SDS011;6361;52.120;5.108;2023-04-16T06:06:34;29.63;;;12.45;;
12591;SDS011;6361;52.120;5.108;2023-04-16T06:09:01;31.58;;;12.02;;
12591;SDS011;6361;52.120;5.108;2023-04-16T06:11:28;31.60;;;12.85;;
12591;SDS011;6361;52.120;5.108;2023-04-16T06:13:53;26.85;;;11.98;;
12591;SDS011;6361;52.120;5.108;2023-04-16T06:16:19;30.58;;;11.57;;
12591;SDS011;6361;52.120;5.108;2023-04-16T06:18:44;25.55;;;11.10;;
12591;SDS011;6361;52.120;5.108;2023-04-16T06:21:10;27.85;;;11.27;;
12591;SDS011;6361;52.120;5.108;2023-04-16T06:23:35;26.73;;;10.93;;
12591;SDS011;6361;52.120;5.108;2023-04-16T06:26:00;23.85;;;10.75;;
12591;SDS011;6361;52.120;5.108;2023-04-16T06:28:26;22.73;;;10.52;;
12591;SDS011;6361;52.120;5.108;2023-04-16T06:30:51;22.05;;;10.15;;
12591;SDS011;6361;52.120;5.108;2023-04-16T06:33:16;21.08;;;10.27;;
12591;SDS011;6361;52.120;5.108;2023-04-16T06:35:42;25.70;;;10.95;;
12591;SDS011;6361;52.120;5.108;2023-04-16T06:38:07;25.02;;;10.32;;
12591;SDS011;6361;52.120;5.108;2023-04-16T06:40:32;21.77;;;10.13;;
12591;SDS011;6361;52.120;5.108;2023-04-16T06:42:58;28.98;;;11.00;;
12591;SDS011;6361;52.120;5.108;2023-04-16T06:45:23;23.08;;;10.63;;
12591;SDS011;6361;52.120;5.108;2023-04-16T06:47:49;24.15;;;11.40;;
12591;SDS011;6361;52.120;5.108;2023-04-16T06:50:16;21.48;;;10.30;;
12591;SDS011;6361;52.120;5.108;2023-04-16T06:52:41;20.50;;;11.38;;
12591;SDS011;6361;52.120;5.108;2023-04-16T06:55:07;21.15;;;10.40;;
12591;SDS011;6361;52.120;5.108;2023-04-16T06:57:34;25.02;;;11.13;;
12591;SDS011;6361;52.120;5.108;2023-04-16T06:59:59;23.92;;;11.00;;
12591;SDS011;6361;52.120;5.108;2023-04-16T07:02:25;21.85;;;10.30;;
12591;SDS011;6361;52.120;5.108;2023-04-16T07:04:50;24.02;;;10.82;;
12591;SDS011;6361;52.120;5.108;2023-04-16T07:07:16;22.00;;;10.23;;
12591;SDS011;6361;52.120;5.108;2023-04-16T07:09:42;21.98;;;11.07;;
12591;SDS011;6361;52.120;5.108;2023-04-16T07:12:07;22.17;;;10.43;;
12591;SDS011;6361;52.120;5.108;2023-04-16T07:14:33;20.27;;;10.73;;
12591;SDS011;6361;52.120;5.108;2023-04-16T07:16:58;21.73;;;10.02;;
12591;SDS011;6361;52.120;5.108;2023-04-16T07:19:23;22.50;;;10.35;;
12591;SDS011;6361;52.120;5.108;2023-04-16T07:21:49;22.70;;;10.68;;
12591;SDS011;6361;52.120;5.108;2023-04-16T07:24:15;19.92;;;10.13;;
12591;SDS011;6361;52.120;5.108;2023-04-16T07:26:41;22.70;;;11.23;;
12591;SDS011;6361;52.120;5.108;2023-04-16T07:29:06;23.30;;;10.55;;
12591;SDS011;6361;52.120;5.108;2023-04-16T07:31:31;19.13;;;9.93;;
12591;SDS011;6361;52.120;5.108;2023-04-16T07:33:57;18.42;;;9.65;;
12591;SDS011;6361;52.120;5.108;2023-04-16T07:36:22;20.95;;;9.68;;
12591;SDS011;6361;52.120;5.108;2023-04-16T07:38:48;19.63;;;10.07;;
12591;SDS011;6361;52.120;5.108;2023-04-16T07:41:13;14.52;;;8.55;;
12591;SDS011;6361;52.120;5.108;2023-04-16T07:43:39;17.65;;;8.38;;
12591;SDS011;6361;52.120;5.108;2023-04-16T07:46:04;16.60;;;8.75;;
12591;SDS011;6361;52.120;5.108;2023-04-16T07:48:30;14.80;;;8.18;;
12591;SDS011;6361;52.120;5.108;2023-04-16T07:50:55;16.00;;;8.73;;
12591;SDS011;6361;52.120;5.108;2023-04-16T07:53:23;16.08;;;8.70;;
12591;SDS011;6361;52.120;5.108;2023-04-16T07:55:48;17.02;;;8.20;;
12591;SDS011;6361;52.120;5.108;2023-04-16T07:58:13;16.15;;;8.82;;
12591;SDS011;6361;52.120;5.108;2023-04-16T08:00:39;15.13;;;8.95;;
12591;SDS011;6361;52.120;5.108;2023-04-16T08:03:04;15.05;;;8.38;;
12591;SDS011;6361;52.120;5.108;2023-04-16T08:05:32;15.98;;;8.60;;
12591;SDS011;6361;52.120;5.108;2023-04-16T08:07:57;16.45;;;8.50;;
12591;SDS011;6361;52.120;5.108;2023-04-16T08:10:23;15.52;;;8.93;;
12591;SDS011;6361;52.120;5.108;2023-04-16T08:12:48;13.98;;;8.55;;
12591;SDS011;6361;52.120;5.108;2023-04-16T08:15:13;15.10;;;8.05;;
12591;SDS011;6361;52.120;5.108;2023-04-16T08:17:39;17.13;;;8.23;;
12591;SDS011;6361;52.120;5.108;2023-04-16T08:20:06;16.52;;;8.60;;
12591;SDS011;6361;52.120;5.108;2023-04-16T08:22:32;15.38;;;8.57;;
12591;SDS011;6361;52.120;5.108;2023-04-16T08:24:58;12.93;;;6.72;;
12591;SDS011;6361;52.120;5.108;2023-04-16T08:27:23;20.40;;;7.32;;
12591;SDS011;6361;52.120;5.108;2023-04-16T08:29:48;22.88;;;7.43;;
12591;SDS011;6361;52.120;5.108;2023-04-16T08:32:14;14.93;;;5.38;;
12591;SDS011;6361;52.120;5.108;2023-04-16T08:34:39;14.30;;;7.22;;
12591;SDS011;6361;52.120;5.108;2023-04-16T08:37:05;18.42;;;7.47;;
12591;SDS011;6361;52.120;5.108;2023-04-16T08:39:31;18.35;;;8.27;;
12591;SDS011;6361;52.120;5.108;2023-04-16T08:41:56;26.90;;;8.70;;
12591;SDS011;6361;52.120;5.108;2023-04-16T08:44:26;15.00;;;7.90;;
12591;SDS011;6361;52.120;5.108;2023-04-16T08:46:54;13.20;;;7.38;;
12591;SDS011;6361;52.120;5.108;2023-04-16T08:49:22;14.48;;;7.70;;
12591;SDS011;6361;52.120;5.108;2023-04-16T08:51:49;14.55;;;7.85;;
12591;SDS011;6361;52.120;5.108;2023-04-16T08:54:18;14.50;;;7.75;;
12591;SDS011;6361;52.120;5.108;2023-04-16T08:56:49;15.18;;;7.95;;
12591;SDS011;6361;52.120;5.108;2023-04-16T08:59:15;16.98;;;8.23;;
12591;SDS011;6361;52.120;5.108;2023-04-16T09:01:40;15.77;;;8.38;;
12591;SDS011;6361;52.120;5.108;2023-04-16T09:04:06;14.63;;;7.90;;
12591;SDS011;6361;52.120;5.108;2023-04-16T09:06:31;16.15;;;8.13;;
12591;SDS011;6361;52.120;5.108;2023-04-16T09:08:58;16.30;;;7.75;;
12591;SDS011;6361;52.120;5.108;2023-04-16T09:11:23;14.45;;;7.55;;
12591;SDS011;6361;52.120;5.108;2023-04-16T09:13:49;17.15;;;8.23;;
12591;SDS011;6361;52.120;5.108;2023-04-16T09:16:15;17.00;;;7.88;;
12591;SDS011;6361;52.120;5.108;2023-04-16T09:18:41;15.48;;;8.13;;
12591;SDS011;6361;52.120;5.108;2023-04-16T09:21:08;16.90;;;7.95;;
12591;SDS011;6361;52.120;5.108;2023-04-16T09:23:34;14.05;;;7.15;;
12591;SDS011;6361;52.120;5.108;2023-04-16T09:26:04;15.90;;;7.82;;
12591;SDS011;6361;52.120;5.108;2023-04-16T09:28:43;15.50;;;6.95;;
12591;SDS011;6361;52.120;5.108;2023-04-16T09:31:14;12.75;;;6.47;;
12591;SDS011;6361;52.120;5.108;2023-04-16T09:33:41;11.13;;;6.55;;
12591;SDS011;6361;52.120;5.108;2023-04-16T09:36:07;13.70;;;6.55;;
12591;SDS011;6361;52.120;5.108;2023-04-16T09:38:49;11.82;;;6.55;;
12591;SDS011;6361;52.120;5.108;2023-04-16T09:41:17;11.93;;;5.75;;
12591;SDS011;6361;52.120;5.108;2023-04-16T09:43:53;10.68;;;6.07;;
12591;SDS011;6361;52.120;5.108;2023-04-16T09:46:20;12.38;;;5.93;;
12591;SDS011;6361;52.120;5.108;2023-04-16T09:48:46;13.52;;;6.45;;
12591;SDS011;6361;52.120;5.108;2023-04-16T09:51:11;11.57;;;6.45;;
12591;SDS011;6361;52.120;5.108;2023-04-16T09:53:37;12.00;;;6.85;;
12591;SDS011;6361;52.120;5.108;2023-04-16T09:56:03;11.57;;;6.88;;
12591;SDS011;6361;52.120;5.108;2023-04-16T09:58:30;9.73;;;5.80;;
12591;SDS011;6361;52.120;5.108;2023-04-16T10:03:31;13.00;;;6.03;;
12591;SDS011;6361;52.120;5.108;2023-04-16T10:05:58;14.13;;;6.22;;
12591;SDS011;6361;52.120;5.108;2023-04-16T10:08:25;10.32;;;5.63;;
12591;SDS011;6361;52.120;5.108;2023-04-16T10:10:50;10.88;;;5.82;;
12591;SDS011;6361;52.120;5.108;2023-04-16T10:13:16;11.70;;;6.10;;
12591;SDS011;6361;52.120;5.108;2023-04-16T10:15:43;9.30;;;5.95;;
12591;SDS011;6361;52.120;5.108;2023-04-16T10:18:08;10.70;;;6.28;;
12591;SDS011;6361;52.120;5.108;2023-04-16T10:20:33;10.35;;;6.32;;
12591;SDS011;6361;52.120;5.108;2023-04-16T10:22:59;14.43;;;7.55;;
12591;SDS011;6361;52.120;5.108;2023-04-16T10:25:26;13.82;;;7.13;;
12591;SDS011;6361;52.120;5.108;2023-04-16T10:27:52;11.13;;;7.35;;
12591;SDS011;6361;52.120;5.108;2023-04-16T10:30:17;15.52;;;6.88;;
12591;SDS011;6361;52.120;5.108;2023-04-16T10:32:43;13.38;;;7.78;;
12591;SDS011;6361;52.120;5.108;2023-04-16T10:35:09;15.05;;;8.20;;
12591;SDS011;6361;52.120;5.108;2023-04-16T10:37:39;15.52;;;7.53;;
12591;SDS011;6361;52.120;5.108;2023-04-16T10:40:20;13.52;;;7.68;;
12591;SDS011;6361;52.120;5.108;2023-04-16T10:42:56;16.50;;;8.25;;
12591;SDS011;6361;52.120;5.108;2023-04-16T10:45:29;16.85;;;8.38;;
12591;SDS011;6361;52.120;5.108;2023-04-16T10:47:56;13.30;;;7.93;;
12591;SDS011;6361;52.120;5.108;2023-04-16T10:50:22;14.40;;;8.82;;
12591;SDS011;6361;52.120;5.108;2023-04-16T10:52:48;15.68;;;8.07;;
12591;SDS011;6361;52.120;5.108;2023-04-16T10:55:16;17.67;;;9.50;;
12591;SDS011;6361;52.120;5.108;2023-04-16T10:57:41;20.85;;;9.13;;
12591;SDS011;6361;52.120;5.108;2023-04-16T11:00:28;16.13;;;7.93;;
12591;SDS011;6361;52.120;5.108;2023-04-16T11:02:53;17.67;;;8.35;;
12591;SDS011;6361;52.120;5.108;2023-04-16T11:05:22;13.98;;;8.73;;
12591;SDS011;6361;52.120;5.108;2023-04-16T11:07:48;18.33;;;8.65;;
12591;SDS011;6361;52.120;5.108;2023-04-16T11:10:13;18.45;;;9.35;;
12591;SDS011;6361;52.120;5.108;2023-04-16T11:17:38;22.70;;;9.52;;
12591;SDS011;6361;52.120;5.108;2023-04-16T11:20:19;17.13;;;9.50;;
12591;SDS011;6361;52.120;5.108;2023-04-16T11:22:46;19.17;;;9.82;;
12591;SDS011;6361;52.120;5.108;2023-04-16T11:25:28;23.15;;;9.85;;
12591;SDS011;6361;52.120;5.108;2023-04-16T11:27:54;22.73;;;10.13;;
12591;SDS011;6361;52.120;5.108;2023-04-16T11:30:29;24.17;;;10.10;;
12591;SDS011;6361;52.120;5.108;2023-04-16T11:32:57;22.13;;;9.95;;
12591;SDS011;6361;52.120;5.108;2023-04-16T11:35:22;21.92;;;10.98;;
12591;SDS011;6361;52.120;5.108;2023-04-16T11:37:48;21.02;;;10.52;;
12591;SDS011;6361;52.120;5.108;2023-04-16T11:40:13;26.45;;;10.07;;
12591;SDS011;6361;52.120;5.108;2023-04-16T11:42:39;24.65;;;10.52;;
12591;SDS011;6361;52.120;5.108;2023-04-16T11:45:09;26.85;;;10.70;;
12591;SDS011;6361;52.120;5.108;2023-04-16T11:47:43;23.05;;;11.13;;
12591;SDS011;6361;52.120;5.108;2023-04-16T11:52:48;27.13;;;11.25;;
12591;SDS011;6361;52.120;5.108;2023-04-16T11:55:14;25.90;;;11.52;;
12591;SDS011;6361;52.120;5.108;2023-04-16T11:57:40;27.30;;;11.18;;
12591;SDS011;6361;52.120;5.108;2023-04-16T12:00:06;24.15;;;12.13;;
12591;SDS011;6361;52.120;5.108;2023-04-16T12:02:38;29.50;;;12.27;;
12591;SDS011;6361;52.120;5.108;2023-04-16T12:05:05;26.13;;;12.30;;
12591;SDS011;6361;52.120;5.108;2023-04-16T12:07:52;24.80;;;12.10;;
12591;SDS011;6361;52.120;5.108;2023-04-16T12:10:17;32.53;;;11.52;;
12591;SDS011;6361;52.120;5.108;2023-04-16T12:12:43;28.95;;;11.80;;
12591;SDS011;6361;52.120;5.108;2023-04-16T12:15:08;27.98;;;12.10;;
12591;SDS011;6361;52.120;5.108;2023-04-16T12:17:34;30.75;;;13.10;;
12591;SDS011;6361;52.120;5.108;2023-04-16T12:20:01;35.22;;;13.73;;
12591;SDS011;6361;52.120;5.108;2023-04-16T12:22:30;36.38;;;13.27;;
12591;SDS011;6361;52.120;5.108;2023-04-16T12:24:59;22.17;;;11.70;;
12591;SDS011;6361;52.120;5.108;2023-04-16T12:30:14;30.20;;;12.48;;
12591;SDS011;6361;52.120;5.108;2023-04-16T12:32:41;27.25;;;12.00;;
12591;SDS011;6361;52.120;5.108;2023-04-16T12:35:08;23.17;;;12.25;;
12591;SDS011;6361;52.120;5.108;2023-04-16T12:37:34;26.65;;;11.88;;
12591;SDS011;6361;52.120;5.108;2023-04-16T12:40:00;26.23;;;11.73;;
12591;SDS011;6361;52.120;5.108;2023-04-16T12:42:25;26.10;;;12.02;;
12591;SDS011;6361;52.120;5.108;2023-04-16T12:44:51;22.83;;;11.52;;
12591;SDS011;6361;52.120;5.108;2023-04-16T12:47:16;21.02;;;10.38;;
12591;SDS011;6361;52.120;5.108;2023-04-16T12:49:41;21.67;;;11.65;;
12591;SDS011;6361;52.120;5.108;2023-04-16T12:52:08;25.75;;;11.77;;
12591;SDS011;6361;52.120;5.108;2023-04-16T12:54:33;21.90;;;11.00;;
12591;SDS011;6361;52.120;5.108;2023-04-16T12:57:01;21.70;;;10.63;;
12591;SDS011;6361;52.120;5.108;2023-04-16T12:59:26;30.42;;;11.40;;
12591;SDS011;6361;52.120;5.108;2023-04-16T13:01:51;23.80;;;10.77;;
12591;SDS011;6361;52.120;5.108;2023-04-16T13:04:17;28.40;;;11.40;;
12591;SDS011;6361;52.120;5.108;2023-04-16T13:06:45;23.17;;;10.55;;
12591;SDS011;6361;52.120;5.108;2023-04-16T13:09:11;21.55;;;10.77;;
12591;SDS011;6361;52.120;5.108;2023-04-16T13:11:36;23.13;;;11.05;;
12591;SDS011;6361;52.120;5.108;2023-04-16T13:14:02;22.45;;;11.23;;
12591;SDS011;6361;52.120;5.108;2023-04-16T13:16:27;24.90;;;11.70;;
12591;SDS011;6361;52.120;5.108;2023-04-16T13:18:56;25.52;;;11.95;;
12591;SDS011;6361;52.120;5.108;2023-04-16T13:21:21;22.90;;;11.05;;
12591;SDS011;6361;52.120;5.108;2023-04-16T13:23:47;25.77;;;12.20;;
12591;SDS011;6361;52.120;5.108;2023-04-16T13:26:13;23.35;;;11.07;;
12591;SDS011;6361;52.120;5.108;2023-04-16T13:28:39;22.88;;;11.63;;
12591;SDS011;6361;52.120;5.108;2023-04-16T13:31:05;21.80;;;11.43;;
12591;SDS011;6361;52.120;5.108;2023-04-16T13:33:30;22.77;;;11.68;;
12591;SDS011;6361;52.120;5.108;2023-04-16T13:35:56;22.00;;;10.95;;
12591;SDS011;6361;52.120;5.108;2023-04-16T13:38:21;25.75;;;12.05;;
12591;SDS011;6361;52.120;5.108;2023-04-16T13:40:47;26.05;;;11.35;;
12591;SDS011;6361;52.120;5.108;2023-04-16T13:43:12;22.98;;;11.68;;
12591;SDS011;6361;52.120;5.108;2023-04-16T13:45:39;21.65;;;11.25;;
12591;SDS011;6361;52.120;5.108;2023-04-16T13:48:04;22.13;;;11.15;;
12591;SDS011;6361;52.120;5.108;2023-04-16T13:50:30;24.00;;;11.40;;
12591;SDS011;6361;52.120;5.108;2023-04-16T13:52:55;24.90;;;11.35;;
12591;SDS011;6361;52.120;5.108;2023-04-16T13:55:21;24.42;;;11.52;;
12591;SDS011;6361;52.120;5.108;2023-04-16T13:57:46;20.42;;;11.25;;
12591;SDS011;6361;52.120;5.108;2023-04-16T14:00:13;22.23;;;11.82;;
12591;SDS011;6361;52.120;5.108;2023-04-16T14:02:40;23.30;;;11.90;;
12591;SDS011;6361;52.120;5.108;2023-04-16T14:05:06;23.05;;;12.07;;
12591;SDS011;6361;52.120;5.108;2023-04-16T14:07:32;25.17;;;12.75;;
12591;SDS011;6361;52.120;5.108;2023-04-16T14:09:57;21.38;;;12.70;;
12591;SDS011;6361;52.120;5.108;2023-04-16T14:12:22;25.63;;;12.57;;
12591;SDS011;6361;52.120;5.108;2023-04-16T14:14:48;24.73;;;12.55;;
12591;SDS011;6361;52.120;5.108;2023-04-16T14:17:13;25.60;;;12.05;;
12591;SDS011;6361;52.120;5.108;2023-04-16T14:19:39;24.52;;;12.57;;
12591;SDS011;6361;52.120;5.108;2023-04-16T14:22:04;23.25;;;12.00;;
12591;SDS011;6361;52.120;5.108;2023-04-16T14:24:30;33.20;;;13.13;;
12591;SDS011;6361;52.120;5.108;2023-04-16T14:26:55;27.67;;;12.55;;
12591;SDS011;6361;52.120;5.108;2023-04-16T14:29:21;27.98;;;12.75;;
12591;SDS011;6361;52.120;5.108;2023-04-16T14:31:46;28.65;;;12.68;;
12591;SDS011;6361;52.120;5.108;2023-04-16T14:34:12;27.63;;;12.98;;
12591;SDS011;6361;52.120;5.108;2023-04-16T14:36:37;24.02;;;12.75;;
12591;SDS011;6361;52.120;5.108;2023-04-16T14:39:02;23.85;;;13.15;;
12591;SDS011;6361;52.120;5.108;2023-04-16T14:41:29;27.52;;;12.18;;
12591;SDS011;6361;52.120;5.108;2023-04-16T14:43:54;26.27;;;12.25;;
12591;SDS011;6361;52.120;5.108;2023-04-16T14:46:19;30.80;;;14.07;;
12591;SDS011;6361;52.120;5.108;2023-04-16T14:48:45;32.25;;;13.80;;
12591;SDS011;6361;52.120;5.108;2023-04-16T14:51:10;27.30;;;13.35;;
12591;SDS011;6361;52.120;5.108;2023-04-16T14:53:36;28.65;;;12.85;;